sensor_id;sensor_type;location;lat;lon;timestamp;temperature;humidity
28773;DHT22;15925;51.222;5.678;2023-10-13T00:01:56;18.10;99.90
28773;DHT22;15925;51.222;5.678;2023-10-13T00:04:30;18.10;99.90
28773;DHT22;15925;51.222;5.678;2023-10-13T00:06:58;18.20;99.90
28773;DHT22;15925;51.222;5.678;2023-10-13T00:09:25;18.20;99.90
28773;DHT22;15925;51.222;5.678;2023-10-13T00:11:52;18.20;99.90
28773;DHT22;15925;51.222;5.678;2023-10-13T00:14:19;18.20;99.90
28773;DHT22;15925;51.222;5.678;2023-10-13T00:16:47;18.20;99.90
28773;DHT22;15925;51.222;5.678;2023-10-13T00:19:27;18.30;99.90
28773;DHT22;15925;51.222;5.678;2023-10-13T00:21:53;18.30;99.90
28773;DHT22;15925;51.222;5.678;2023-10-13T00:24:21;18.30;99.90
28773;DHT22;15925;51.222;5.678;2023-10-13T00:26:48;18.30;99.90
28773;DHT22;15925;51.222;5.678;2023-10-13T00:29:14;18.30;99.90
28773;DHT22;15925;51.222;5.678;2023-10-13T00:31:42;18.30;99.90
28773;DHT22;15925;51.222;5.678;2023-10-13T00:34:11;18.40;99.90
28773;DHT22;15925;51.222;5.678;2023-10-13T00:36:40;18.30;99.90
28773;DHT22;15925;51.222;5.678;2023-10-13T00:39:32;18.30;99.90
28773;DHT22;15925;51.222;5.678;2023-10-13T00:42:02;18.40;99.90
28773;DHT22;15925;51.222;5.678;2023-10-13T00:44:32;18.40;99.90
28773;DHT22;15925;51.222;5.678;2023-10-13T00:47:04;18.40;99.90
28773;DHT22;15925;51.222;5.678;2023-10-13T00:49:33;18.40;99.90
28773;DHT22;15925;51.222;5.678;2023-10-13T00:52:02;18.40;99.90
28773;DHT22;15925;51.222;5.678;2023-10-13T00:54:28;18.40;99.90
28773;DHT22;15925;51.222;5.678;2023-10-13T00:56:53;18.40;99.90
28773;DHT22;15925;51.222;5.678;2023-10-13T00:59:30;18.40;99.90
28773;DHT22;15925;51.222;5.678;2023-10-13T01:02:02;18.50;99.90
28773;DHT22;15925;51.222;5.678;2023-10-13T01:04:48;18.40;99.90
28773;DHT22;15925;51.222;5.678;2023-10-13T01:07:14;18.40;99.90
28773;DHT22;15925;51.222;5.678;2023-10-13T01:09:42;18.40;99.90
28773;DHT22;15925;51.222;5.678;2023-10-13T01:12:12;18.40;99.90
28773;DHT22;15925;51.222;5.678;2023-10-13T01:14:38;18.40;99.90
28773;DHT22;15925;51.222;5.678;2023-10-13T01:17:04;18.40;99.90
28773;DHT22;15925;51.222;5.678;2023-10-13T01:19:30;18.40;99.90
28773;DHT22;15925;51.222;5.678;2023-10-13T01:21:55;18.40;99.90
28773;DHT22;15925;51.222;5.678;2023-10-13T01:24:29;18.40;99.90
28773;DHT22;15925;51.222;5.678;2023-10-13T01:26:57;18.50;99.90
28773;DHT22;15925;51.222;5.678;2023-10-13T01:29:23;18.50;99.90
28773;DHT22;15925;51.222;5.678;2023-10-13T01:31:54;18.50;99.90
28773;DHT22;15925;51.222;5.678;2023-10-13T01:34:20;18.50;99.90
28773;DHT22;15925;51.222;5.678;2023-10-13T01:36:49;18.60;99.90
28773;DHT22;15925;51.222;5.678;2023-10-13T01:39:23;18.60;99.90
28773;DHT22;15925;51.222;5.678;2023-10-13T01:41:52;18.50;99.90
28773;DHT22;15925;51.222;5.678;2023-10-13T01:44:24;18.50;99.90
28773;DHT22;15925;51.222;5.678;2023-10-13T01:46:49;18.50;99.90
28773;DHT22;15925;51.222;5.678;2023-10-13T01:49:16;18.50;99.90
28773;DHT22;15925;51.222;5.678;2023-10-13T01:51:42;18.50;99.90
28773;DHT22;15925;51.222;5.678;2023-10-13T01:54:08;18.50;99.90
28773;DHT22;15925;51.222;5.678;2023-10-13T01:56:37;18.50;99.90
28773;DHT22;15925;51.222;5.678;2023-10-13T01:59:08;18.50;99.90
28773;DHT22;15925;51.222;5.678;2023-10-13T02:04:46;18.50;99.90
28773;DHT22;15925;51.222;5.678;2023-10-13T02:07:15;18.60;99.90
28773;DHT22;15925;51.222;5.678;2023-10-13T02:09:41;18.50;99.90
28773;DHT22;15925;51.222;5.678;2023-10-13T02:12:08;18.50;99.90
28773;DHT22;15925;51.222;5.678;2023-10-13T02:14:35;18.50;99.90
28773;DHT22;15925;51.222;5.678;2023-10-13T02:17:02;18.50;99.90
28773;DHT22;15925;51.222;5.678;2023-10-13T02:19:42;18.50;99.90
28773;DHT22;15925;51.222;5.678;2023-10-13T02:22:11;18.50;99.90
28773;DHT22;15925;51.222;5.678;2023-10-13T02:24:37;18.50;99.90
28773;DHT22;15925;51.222;5.678;2023-10-13T02:27:08;18.50;99.90
28773;DHT22;15925;51.222;5.678;2023-10-13T02:29:40;18.60;99.90
28773;DHT22;15925;51.222;5.678;2023-10-13T02:32:06;18.50;99.90
28773;DHT22;15925;51.222;5.678;2023-10-13T02:34:46;18.50;99.90
28773;DHT22;15925;51.222;5.678;2023-10-13T02:37:12;18.50;99.90
28773;DHT22;15925;51.222;5.678;2023-10-13T02:39:39;18.50;99.90
28773;DHT22;15925;51.222;5.678;2023-10-13T02:42:08;18.50;99.90
28773;DHT22;15925;51.222;5.678;2023-10-13T02:44:34;18.50;99.90
28773;DHT22;15925;51.222;5.678;2023-10-13T02:47:02;18.50;99.90
28773;DHT22;15925;51.222;5.678;2023-10-13T02:49:31;18.50;99.90
28773;DHT22;15925;51.222;5.678;2023-10-13T02:52:00;18.50;99.90
28773;DHT22;15925;51.222;5.678;2023-10-13T02:54:31;18.50;99.90
28773;DHT22;15925;51.222;5.678;2023-10-13T02:57:00;18.50;99.90
28773;DHT22;15925;51.222;5.678;2023-10-13T02:59:29;18.50;99.90
28773;DHT22;15925;51.222;5.678;2023-10-13T03:02:21;18.60;99.90
28773;DHT22;15925;51.222;5.678;2023-10-13T03:04:51;18.60;99.90
28773;DHT22;15925;51.222;5.678;2023-10-13T03:07:16;18.60;99.90
28773;DHT22;15925;51.222;5.678;2023-10-13T03:09:48;18.50;99.90
28773;DHT22;15925;51.222;5.678;2023-10-13T03:12:18;18.50;99.90
28773;DHT22;15925;51.222;5.678;2023-10-13T03:14:43;18.60;99.90
28773;DHT22;15925;51.222;5.678;2023-10-13T03:17:20;18.60;99.90
28773;DHT22;15925;51.222;5.678;2023-10-13T03:19:58;18.60;99.90
28773;DHT22;15925;51.222;5.678;2023-10-13T03:22:24;18.60;99.90
28773;DHT22;15925;51.222;5.678;2023-10-13T03:24:56;18.50;99.90
28773;DHT22;15925;51.222;5.678;2023-10-13T03:27:25;18.50;99.90
28773;DHT22;15925;51.222;5.678;2023-10-13T03:30:05;18.50;99.90
28773;DHT22;15925;51.222;5.678;2023-10-13T03:32:37;18.50;99.90
28773;DHT22;15925;51.222;5.678;2023-10-13T03:35:09;18.50;99.90
28773;DHT22;15925;51.222;5.678;2023-10-13T03:37:50;18.50;99.90
28773;DHT22;15925;51.222;5.678;2023-10-13T03:40:16;18.50;99.90
28773;DHT22;15925;51.222;5.678;2023-10-13T03:42:48;18.50;99.90
28773;DHT22;15925;51.222;5.678;2023-10-13T03:45:34;18.40;99.90
28773;DHT22;15925;51.222;5.678;2023-10-13T03:48:03;18.50;99.90
28773;DHT22;15925;51.222;5.678;2023-10-13T03:50:37;18.40;99.90
28773;DHT22;15925;51.222;5.678;2023-10-13T03:53:12;18.50;99.90
28773;DHT22;15925;51.222;5.678;2023-10-13T03:55:39;18.50;99.90
28773;DHT22;15925;51.222;5.678;2023-10-13T03:58:04;18.50;99.90
28773;DHT22;15925;51.222;5.678;2023-10-13T04:00:30;18.40;99.90
28773;DHT22;15925;51.222;5.678;2023-10-13T04:02:57;18.40;99.90
28773;DHT22;15925;51.222;5.678;2023-10-13T04:05:32;18.40;99.90
28773;DHT22;15925;51.222;5.678;2023-10-13T04:08:26;18.40;99.90
28773;DHT22;15925;51.222;5.678;2023-10-13T04:11:12;18.50;99.90
28773;DHT22;15925;51.222;5.678;2023-10-13T04:13:57;18.50;99.90
28773;DHT22;15925;51.222;5.678;2023-10-13T04:16:41;18.50;99.90
28773;DHT22;15925;51.222;5.678;2023-10-13T04:19:20;18.50;99.90
28773;DHT22;15925;51.222;5.678;2023-10-13T04:21:48;18.50;99.90
28773;DHT22;15925;51.222;5.678;2023-10-13T04:24:25;18.50;99.90
28773;DHT22;15925;51.222;5.678;2023-10-13T04:26:51;18.50;99.90
28773;DHT22;15925;51.222;5.678;2023-10-13T04:29:36;18.50;99.90
28773;DHT22;15925;51.222;5.678;2023-10-13T04:32:31;18.50;99.90
28773;DHT22;15925;51.222;5.678;2023-10-13T04:35:18;18.50;99.90
28773;DHT22;15925;51.222;5.678;2023-10-13T04:37:44;18.50;99.90
28773;DHT22;15925;51.222;5.678;2023-10-13T04:40:16;18.50;99.90
28773;DHT22;15925;51.222;5.678;2023-10-13T04:42:44;18.50;99.90
28773;DHT22;15925;51.222;5.678;2023-10-13T04:45:19;18.50;99.90
28773;DHT22;15925;51.222;5.678;2023-10-13T04:47:58;18.50;99.90
28773;DHT22;15925;51.222;5.678;2023-10-13T04:50:45;18.50;99.90
28773;DHT22;15925;51.222;5.678;2023-10-13T04:53:14;18.50;99.90
28773;DHT22;15925;51.222;5.678;2023-10-13T04:55:59;18.50;99.90
28773;DHT22;15925;51.222;5.678;2023-10-13T04:58:28;18.50;99.90
28773;DHT22;15925;51.222;5.678;2023-10-13T05:01:00;18.50;99.90
28773;DHT22;15925;51.222;5.678;2023-10-13T05:03:44;18.50;99.90
28773;DHT22;15925;51.222;5.678;2023-10-13T05:06:28;18.50;99.90
28773;DHT22;15925;51.222;5.678;2023-10-13T05:09:09;18.50;99.90
28773;DHT22;15925;51.222;5.678;2023-10-13T05:11:53;18.50;99.90
28773;DHT22;15925;51.222;5.678;2023-10-13T05:14:37;18.50;99.90
28773;DHT22;15925;51.222;5.678;2023-10-13T05:17:22;18.40;99.90
28773;DHT22;15925;51.222;5.678;2023-10-13T05:20:06;18.50;99.90
28773;DHT22;15925;51.222;5.678;2023-10-13T05:22:50;18.50;99.90
28773;DHT22;15925;51.222;5.678;2023-10-13T05:25:35;18.40;99.90
28773;DHT22;15925;51.222;5.678;2023-10-13T05:28:19;18.50;99.90
28773;DHT22;15925;51.222;5.678;2023-10-13T05:31:03;18.50;99.90
28773;DHT22;15925;51.222;5.678;2023-10-13T05:33:48;18.50;99.90
28773;DHT22;15925;51.222;5.678;2023-10-13T05:36:33;18.50;99.90
28773;DHT22;15925;51.222;5.678;2023-10-13T05:39:17;18.50;99.90
28773;DHT22;15925;51.222;5.678;2023-10-13T05:42:01;18.50;99.90
28773;DHT22;15925;51.222;5.678;2023-10-13T05:44:45;18.50;99.90
28773;DHT22;15925;51.222;5.678;2023-10-13T05:47:29;18.50;99.90
28773;DHT22;15925;51.222;5.678;2023-10-13T05:50:16;18.50;99.90
28773;DHT22;15925;51.222;5.678;2023-10-13T05:52:47;18.50;99.90
28773;DHT22;15925;51.222;5.678;2023-10-13T05:55:24;18.50;99.90
28773;DHT22;15925;51.222;5.678;2023-10-13T05:58:08;18.50;99.90
28773;DHT22;15925;51.222;5.678;2023-10-13T06:00:53;18.50;99.90
28773;DHT22;15925;51.222;5.678;2023-10-13T06:03:37;18.50;99.90
28773;DHT22;15925;51.222;5.678;2023-10-13T06:06:21;18.60;99.90
28773;DHT22;15925;51.222;5.678;2023-10-13T06:09:05;18.60;99.90
28773;DHT22;15925;51.222;5.678;2023-10-13T06:11:49;18.60;99.90
28773;DHT22;15925;51.222;5.678;2023-10-13T06:14:33;18.60;99.90
28773;DHT22;15925;51.222;5.678;2023-10-13T06:17:17;18.70;99.90
28773;DHT22;15925;51.222;5.678;2023-10-13T06:20:01;18.70;99.90
28773;DHT22;15925;51.222;5.678;2023-10-13T06:22:48;18.70;99.90
28773;DHT22;15925;51.222;5.678;2023-10-13T06:25:33;18.70;99.90
28773;DHT22;15925;51.222;5.678;2023-10-13T06:28:18;18.70;99.90
28773;DHT22;15925;51.222;5.678;2023-10-13T06:31:03;18.70;99.90
28773;DHT22;15925;51.222;5.678;2023-10-13T06:33:31;18.80;99.90
28773;DHT22;15925;51.222;5.678;2023-10-13T06:35:59;18.80;99.90
28773;DHT22;15925;51.222;5.678;2023-10-13T06:38:25;18.80;99.90
28773;DHT22;15925;51.222;5.678;2023-10-13T06:40:56;18.80;99.90
28773;DHT22;15925;51.222;5.678;2023-10-13T06:43:22;18.70;99.90
28773;DHT22;15925;51.222;5.678;2023-10-13T06:45:49;18.70;99.90
28773;DHT22;15925;51.222;5.678;2023-10-13T06:48:26;18.70;99.90
28773;DHT22;15925;51.222;5.678;2023-10-13T06:50:52;18.70;99.90
28773;DHT22;15925;51.222;5.678;2023-10-13T06:53:20;18.70;99.90
28773;DHT22;15925;51.222;5.678;2023-10-13T06:55:46;18.80;99.90
28773;DHT22;15925;51.222;5.678;2023-10-13T06:58:18;18.80;99.90
28773;DHT22;15925;51.222;5.678;2023-10-13T07:00:49;18.80;99.90
28773;DHT22;15925;51.222;5.678;2023-10-13T07:03:19;18.80;99.90
28773;DHT22;15925;51.222;5.678;2023-10-13T07:05:45;18.80;99.90
28773;DHT22;15925;51.222;5.678;2023-10-13T07:08:14;18.80;99.90
28773;DHT22;15925;51.222;5.678;2023-10-13T07:10:55;18.80;99.90
28773;DHT22;15925;51.222;5.678;2023-10-13T07:13:28;18.80;99.90
28773;DHT22;15925;51.222;5.678;2023-10-13T07:15:54;18.80;99.90
28773;DHT22;15925;51.222;5.678;2023-10-13T07:18:30;18.90;99.90
28773;DHT22;15925;51.222;5.678;2023-10-13T07:21:04;18.80;99.90
28773;DHT22;15925;51.222;5.678;2023-10-13T07:23:36;18.80;99.90
28773;DHT22;15925;51.222;5.678;2023-10-13T07:26:02;18.80;99.90
28773;DHT22;15925;51.222;5.678;2023-10-13T07:28:28;18.80;99.90
28773;DHT22;15925;51.222;5.678;2023-10-13T07:30:56;18.80;99.90
28773;DHT22;15925;51.222;5.678;2023-10-13T07:33:25;18.80;99.90
28773;DHT22;15925;51.222;5.678;2023-10-13T07:36:00;18.90;99.90
28773;DHT22;15925;51.222;5.678;2023-10-13T07:38:26;18.80;99.90
28773;DHT22;15925;51.222;5.678;2023-10-13T07:40:56;18.90;99.90
28773;DHT22;15925;51.222;5.678;2023-10-13T07:43:25;18.90;99.90
28773;DHT22;15925;51.222;5.678;2023-10-13T07:45:52;18.90;99.90
28773;DHT22;15925;51.222;5.678;2023-10-13T07:48:24;19.00;99.90
28773;DHT22;15925;51.222;5.678;2023-10-13T07:51:01;19.00;99.90
28773;DHT22;15925;51.222;5.678;2023-10-13T07:53:27;19.00;99.90
28773;DHT22;15925;51.222;5.678;2023-10-13T07:55:54;19.10;99.90
28773;DHT22;15925;51.222;5.678;2023-10-13T07:58:27;19.20;99.90
28773;DHT22;15925;51.222;5.678;2023-10-13T08:00:53;19.20;99.90
28773;DHT22;15925;51.222;5.678;2023-10-13T08:03:32;19.20;99.90
28773;DHT22;15925;51.222;5.678;2023-10-13T08:05:58;19.20;99.90
28773;DHT22;15925;51.222;5.678;2023-10-13T08:08:24;19.30;99.90
28773;DHT22;15925;51.222;5.678;2023-10-13T08:11:01;19.30;99.90
28773;DHT22;15925;51.222;5.678;2023-10-13T08:13:35;19.40;99.90
28773;DHT22;15925;51.222;5.678;2023-10-13T08:16:02;19.40;99.90
28773;DHT22;15925;51.222;5.678;2023-10-13T08:18:35;19.40;99.90
28773;DHT22;15925;51.222;5.678;2023-10-13T08:21:02;19.40;99.90
28773;DHT22;15925;51.222;5.678;2023-10-13T08:23:31;19.40;99.90
28773;DHT22;15925;51.222;5.678;2023-10-13T08:26:16;19.50;99.90
28773;DHT22;15925;51.222;5.678;2023-10-13T08:29:00;19.60;99.90
28773;DHT22;15925;51.222;5.678;2023-10-13T08:31:44;19.60;99.90
28773;DHT22;15925;51.222;5.678;2023-10-13T08:34:30;19.60;99.90
28773;DHT22;15925;51.222;5.678;2023-10-13T08:37:07;19.60;99.90
28773;DHT22;15925;51.222;5.678;2023-10-13T08:39:54;19.60;99.90
28773;DHT22;15925;51.222;5.678;2023-10-13T08:42:32;19.70;99.90
28773;DHT22;15925;51.222;5.678;2023-10-13T08:50:33;19.80;99.90
28773;DHT22;15925;51.222;5.678;2023-10-13T08:55:56;19.80;99.90
28773;DHT22;15925;51.222;5.678;2023-10-13T08:58:36;19.90;99.90
28773;DHT22;15925;51.222;5.678;2023-10-13T09:01:20;20.00;99.90
28773;DHT22;15925;51.222;5.678;2023-10-13T09:04:08;20.10;99.90
28773;DHT22;15925;51.222;5.678;2023-10-13T09:12:27;20.10;99.90
28773;DHT22;15925;51.222;5.678;2023-10-13T09:17:31;20.10;99.90
28773;DHT22;15925;51.222;5.678;2023-10-13T09:20:06;20.20;99.90
28773;DHT22;15925;51.222;5.678;2023-10-13T09:22:58;20.20;99.90
28773;DHT22;15925;51.222;5.678;2023-10-13T09:25:30;20.20;99.90
28773;DHT22;15925;51.222;5.678;2023-10-13T09:28:00;20.20;99.90
28773;DHT22;15925;51.222;5.678;2023-10-13T09:30:26;20.20;99.90
28773;DHT22;15925;51.222;5.678;2023-10-13T09:35:27;20.30;99.90
28773;DHT22;15925;51.222;5.678;2023-10-13T09:37:53;20.30;99.90
28773;DHT22;15925;51.222;5.678;2023-10-13T09:40:22;20.40;99.90
28773;DHT22;15925;51.222;5.678;2023-10-13T09:42:51;20.40;99.90
28773;DHT22;15925;51.222;5.678;2023-10-13T09:45:17;20.50;99.90
28773;DHT22;15925;51.222;5.678;2023-10-13T09:47:44;20.50;99.90
28773;DHT22;15925;51.222;5.678;2023-10-13T09:50:13;20.50;99.90
28773;DHT22;15925;51.222;5.678;2023-10-13T09:52:49;20.60;99.90
28773;DHT22;15925;51.222;5.678;2023-10-13T09:55:29;20.60;99.90
28773;DHT22;15925;51.222;5.678;2023-10-13T09:58:06;20.70;99.90
28773;DHT22;15925;51.222;5.678;2023-10-13T10:00:44;20.70;99.90
28773;DHT22;15925;51.222;5.678;2023-10-13T10:03:13;20.80;99.90
28773;DHT22;15925;51.222;5.678;2023-10-13T10:05:58;20.80;99.90
28773;DHT22;15925;51.222;5.678;2023-10-13T10:08:31;20.90;99.90
28773;DHT22;15925;51.222;5.678;2023-10-13T10:11:04;20.90;99.90
28773;DHT22;15925;51.222;5.678;2023-10-13T10:13:44;21.00;99.90
28773;DHT22;15925;51.222;5.678;2023-10-13T10:16:13;21.10;99.90
28773;DHT22;15925;51.222;5.678;2023-10-13T10:18:45;21.20;99.90
28773;DHT22;15925;51.222;5.678;2023-10-13T10:21:11;21.30;99.90
28773;DHT22;15925;51.222;5.678;2023-10-13T10:23:36;21.40;99.90
28773;DHT22;15925;51.222;5.678;2023-10-13T10:26:15;21.40;99.90
28773;DHT22;15925;51.222;5.678;2023-10-13T10:28:41;21.40;99.90
28773;DHT22;15925;51.222;5.678;2023-10-13T10:31:08;21.50;99.90
28773;DHT22;15925;51.222;5.678;2023-10-13T10:33:45;21.50;99.90
28773;DHT22;15925;51.222;5.678;2023-10-13T10:36:15;21.50;99.90
28773;DHT22;15925;51.222;5.678;2023-10-13T10:38:52;21.60;99.90
28773;DHT22;15925;51.222;5.678;2023-10-13T10:41:24;21.60;99.90
28773;DHT22;15925;51.222;5.678;2023-10-13T10:43:51;21.70;99.90
28773;DHT22;15925;51.222;5.678;2023-10-13T10:46:29;21.70;99.90
28773;DHT22;15925;51.222;5.678;2023-10-13T10:49:05;21.80;99.90
28773;DHT22;15925;51.222;5.678;2023-10-13T10:51:35;21.80;99.90
28773;DHT22;15925;51.222;5.678;2023-10-13T10:54:17;21.80;99.90
28773;DHT22;15925;51.222;5.678;2023-10-13T10:56:43;21.90;99.90
28773;DHT22;15925;51.222;5.678;2023-10-13T10:59:09;21.80;99.90
28773;DHT22;15925;51.222;5.678;2023-10-13T11:01:44;21.90;99.90
28773;DHT22;15925;51.222;5.678;2023-10-13T11:04:13;21.80;99.90
28773;DHT22;15925;51.222;5.678;2023-10-13T11:06:53;21.90;99.90
28773;DHT22;15925;51.222;5.678;2023-10-13T11:09:27;21.90;99.90
28773;DHT22;15925;51.222;5.678;2023-10-13T11:12:12;21.90;99.90
28773;DHT22;15925;51.222;5.678;2023-10-13T11:14:45;22.00;99.90
28773;DHT22;15925;51.222;5.678;2023-10-13T11:17:22;22.00;99.90
28773;DHT22;15925;51.222;5.678;2023-10-13T11:20:07;22.10;99.90
28773;DHT22;15925;51.222;5.678;2023-10-13T11:22:40;22.10;99.90
28773;DHT22;15925;51.222;5.678;2023-10-13T11:25:19;22.20;99.90
28773;DHT22;15925;51.222;5.678;2023-10-13T11:27:48;22.20;99.90
28773;DHT22;15925;51.222;5.678;2023-10-13T11:30:17;22.30;99.90
28773;DHT22;15925;51.222;5.678;2023-10-13T11:32:57;22.30;99.90
28773;DHT22;15925;51.222;5.678;2023-10-13T11:35:22;22.50;99.90
28773;DHT22;15925;51.222;5.678;2023-10-13T11:37:49;22.50;99.90
28773;DHT22;15925;51.222;5.678;2023-10-13T11:40:22;22.50;99.90
28773;DHT22;15925;51.222;5.678;2023-10-13T11:43:08;22.50;99.90
28773;DHT22;15925;51.222;5.678;2023-10-13T11:45:40;22.60;99.90
28773;DHT22;15925;51.222;5.678;2023-10-13T11:48:19;22.60;99.90
28773;DHT22;15925;51.222;5.678;2023-10-13T11:51:00;22.70;99.90
28773;DHT22;15925;51.222;5.678;2023-10-13T11:53:26;22.80;99.90
28773;DHT22;15925;51.222;5.678;2023-10-13T11:55:55;22.80;99.90
28773;DHT22;15925;51.222;5.678;2023-10-13T11:58:20;22.80;99.90
28773;DHT22;15925;51.222;5.678;2023-10-13T12:00:46;22.80;99.90
28773;DHT22;15925;51.222;5.678;2023-10-13T12:03:32;22.80;99.90
28773;DHT22;15925;51.222;5.678;2023-10-13T12:06:16;22.80;99.90
28773;DHT22;15925;51.222;5.678;2023-10-13T12:09:08;22.80;99.90
28773;DHT22;15925;51.222;5.678;2023-10-13T12:11:37;22.80;99.90
28773;DHT22;15925;51.222;5.678;2023-10-13T12:14:06;22.80;99.90
28773;DHT22;15925;51.222;5.678;2023-10-13T12:16:55;22.70;99.90
28773;DHT22;15925;51.222;5.678;2023-10-13T12:19:24;22.70;99.90
28773;DHT22;15925;51.222;5.678;2023-10-13T12:21:53;22.70;99.90
28773;DHT22;15925;51.222;5.678;2023-10-13T12:24:20;22.70;99.90
28773;DHT22;15925;51.222;5.678;2023-10-13T12:26:56;22.70;99.90
28773;DHT22;15925;51.222;5.678;2023-10-13T12:29:25;22.70;99.90
28773;DHT22;15925;51.222;5.678;2023-10-13T12:31:54;22.70;99.90
28773;DHT22;15925;51.222;5.678;2023-10-13T12:34:38;22.70;99.90
28773;DHT22;15925;51.222;5.678;2023-10-13T12:37:23;22.70;99.90
28773;DHT22;15925;51.222;5.678;2023-10-13T12:40:07;22.80;99.90
28773;DHT22;15925;51.222;5.678;2023-10-13T12:42:52;22.80;99.90
28773;DHT22;15925;51.222;5.678;2023-10-13T12:45:39;22.80;99.90
28773;DHT22;15925;51.222;5.678;2023-10-13T12:48:24;22.90;99.90
28773;DHT22;15925;51.222;5.678;2023-10-13T12:51:08;23.10;99.90
28773;DHT22;15925;51.222;5.678;2023-10-13T12:53:49;23.10;99.90
28773;DHT22;15925;51.222;5.678;2023-10-13T12:56:15;23.00;99.90
28773;DHT22;15925;51.222;5.678;2023-10-13T12:58:42;23.00;99.90
28773;DHT22;15925;51.222;5.678;2023-10-13T13:01:18;23.00;99.90
28773;DHT22;15925;51.222;5.678;2023-10-13T13:03:47;23.00;99.90
28773;DHT22;15925;51.222;5.678;2023-10-13T13:06:17;22.90;99.90
28773;DHT22;15925;51.222;5.678;2023-10-13T13:08:43;22.90;99.90
28773;DHT22;15925;51.222;5.678;2023-10-13T13:11:10;22.80;99.90
28773;DHT22;15925;51.222;5.678;2023-10-13T13:13:36;22.80;99.90
28773;DHT22;15925;51.222;5.678;2023-10-13T13:16:02;22.80;99.90
28773;DHT22;15925;51.222;5.678;2023-10-13T13:18:29;22.80;99.90
28773;DHT22;15925;51.222;5.678;2023-10-13T13:20:54;22.70;99.90
28773;DHT22;15925;51.222;5.678;2023-10-13T13:23:21;22.70;99.90
28773;DHT22;15925;51.222;5.678;2023-10-13T13:25:54;22.70;99.90
28773;DHT22;15925;51.222;5.678;2023-10-13T13:28:22;22.70;99.90
28773;DHT22;15925;51.222;5.678;2023-10-13T13:30:49;22.70;99.90
28773;DHT22;15925;51.222;5.678;2023-10-13T13:33:16;22.70;99.90
28773;DHT22;15925;51.222;5.678;2023-10-13T13:35:42;22.70;99.90
28773;DHT22;15925;51.222;5.678;2023-10-13T13:38:08;22.70;99.90
28773;DHT22;15925;51.222;5.678;2023-10-13T13:40:54;22.70;99.90
28773;DHT22;15925;51.222;5.678;2023-10-13T13:43:21;22.60;99.90
28773;DHT22;15925;51.222;5.678;2023-10-13T13:46:07;22.60;99.90
28773;DHT22;15925;51.222;5.678;2023-10-13T13:48:35;22.60;99.90
28773;DHT22;15925;51.222;5.678;2023-10-13T13:51:07;22.60;99.90
28773;DHT22;15925;51.222;5.678;2023-10-13T13:53:59;22.50;99.90
28773;DHT22;15925;51.222;5.678;2023-10-13T13:56:25;22.60;99.90
28773;DHT22;15925;51.222;5.678;2023-10-13T13:58:52;22.50;99.90
28773;DHT22;15925;51.222;5.678;2023-10-13T14:01:19;22.50;99.90
28773;DHT22;15925;51.222;5.678;2023-10-13T14:03:47;22.50;99.90
28773;DHT22;15925;51.222;5.678;2023-10-13T14:06:20;22.50;99.90
28773;DHT22;15925;51.222;5.678;2023-10-13T14:08:55;22.50;99.90
28773;DHT22;15925;51.222;5.678;2023-10-13T14:11:22;22.50;99.90
28773;DHT22;15925;51.222;5.678;2023-10-13T14:14:12;22.50;99.90
28773;DHT22;15925;51.222;5.678;2023-10-13T14:16:41;22.50;99.90
28773;DHT22;15925;51.222;5.678;2023-10-13T14:19:13;22.50;99.90
28773;DHT22;15925;51.222;5.678;2023-10-13T14:21:44;22.50;99.90
28773;DHT22;15925;51.222;5.678;2023-10-13T14:24:10;22.40;99.90
28773;DHT22;15925;51.222;5.678;2023-10-13T14:26:40;22.40;99.90
28773;DHT22;15925;51.222;5.678;2023-10-13T14:29:09;22.40;99.90
28773;DHT22;15925;51.222;5.678;2023-10-13T14:31:35;22.40;99.90
28773;DHT22;15925;51.222;5.678;2023-10-13T14:34:04;22.40;99.90
28773;DHT22;15925;51.222;5.678;2023-10-13T14:36:30;22.40;99.90
28773;DHT22;15925;51.222;5.678;2023-10-13T14:39:00;22.30;99.90
28773;DHT22;15925;51.222;5.678;2023-10-13T14:41:26;22.30;99.90
28773;DHT22;15925;51.222;5.678;2023-10-13T14:43:52;22.30;99.90
28773;DHT22;15925;51.222;5.678;2023-10-13T14:46:18;22.30;99.90
28773;DHT22;15925;51.222;5.678;2023-10-13T14:48:48;22.30;99.90
28773;DHT22;15925;51.222;5.678;2023-10-13T14:51:14;22.30;99.90
28773;DHT22;15925;51.222;5.678;2023-10-13T14:53:48;22.30;99.90
28773;DHT22;15925;51.222;5.678;2023-10-13T14:56:14;22.40;99.90
28773;DHT22;15925;51.222;5.678;2023-10-13T14:58:40;22.40;99.90
28773;DHT22;15925;51.222;5.678;2023-10-13T15:01:16;22.40;99.90
28773;DHT22;15925;51.222;5.678;2023-10-13T15:03:45;22.40;99.90
28773;DHT22;15925;51.222;5.678;2023-10-13T15:06:17;22.40;99.90
28773;DHT22;15925;51.222;5.678;2023-10-13T15:08:48;22.40;99.90
28773;DHT22;15925;51.222;5.678;2023-10-13T15:11:14;22.40;99.90
28773;DHT22;15925;51.222;5.678;2023-10-13T15:13:40;22.30;99.90
28773;DHT22;15925;51.222;5.678;2023-10-13T15:16:19;22.30;99.90
28773;DHT22;15925;51.222;5.678;2023-10-13T15:18:45;22.30;99.90
28773;DHT22;15925;51.222;5.678;2023-10-13T15:21:15;22.30;99.90
28773;DHT22;15925;51.222;5.678;2023-10-13T15:23:43;22.20;99.90
28773;DHT22;15925;51.222;5.678;2023-10-13T15:26:09;22.20;99.90
28773;DHT22;15925;51.222;5.678;2023-10-13T15:28:36;22.20;99.90
28773;DHT22;15925;51.222;5.678;2023-10-13T15:31:10;22.20;99.90
28773;DHT22;15925;51.222;5.678;2023-10-13T15:33:50;22.10;99.90
28773;DHT22;15925;51.222;5.678;2023-10-13T15:36:18;22.20;99.90
28773;DHT22;15925;51.222;5.678;2023-10-13T15:38:45;22.10;99.90
28773;DHT22;15925;51.222;5.678;2023-10-13T15:41:20;22.00;99.90
28773;DHT22;15925;51.222;5.678;2023-10-13T15:43:46;22.00;99.90
28773;DHT22;15925;51.222;5.678;2023-10-13T15:46:15;21.90;99.90
28773;DHT22;15925;51.222;5.678;2023-10-13T15:48:42;22.00;99.90
28773;DHT22;15925;51.222;5.678;2023-10-13T15:51:11;21.90;99.90
28773;DHT22;15925;51.222;5.678;2023-10-13T15:53:40;21.90;99.90
28773;DHT22;15925;51.222;5.678;2023-10-13T15:56:06;21.90;99.90
28773;DHT22;15925;51.222;5.678;2023-10-13T15:58:43;21.80;99.90
28773;DHT22;15925;51.222;5.678;2023-10-13T16:01:12;21.70;99.90
28773;DHT22;15925;51.222;5.678;2023-10-13T16:03:41;21.70;99.90
28773;DHT22;15925;51.222;5.678;2023-10-13T16:06:12;21.70;99.90
28773;DHT22;15925;51.222;5.678;2023-10-13T16:08:37;21.70;99.90
28773;DHT22;15925;51.222;5.678;2023-10-13T16:11:04;21.50;99.90
28773;DHT22;15925;51.222;5.678;2023-10-13T16:13:35;21.60;99.90
28773;DHT22;15925;51.222;5.678;2023-10-13T16:16:04;21.60;99.90
28773;DHT22;15925;51.222;5.678;2023-10-13T16:18:30;21.40;99.90
28773;DHT22;15925;51.222;5.678;2023-10-13T16:20:58;21.50;99.90
28773;DHT22;15925;51.222;5.678;2023-10-13T16:23:24;21.50;99.90
28773;DHT22;15925;51.222;5.678;2023-10-13T16:25:50;21.30;99.90
28773;DHT22;15925;51.222;5.678;2023-10-13T16:28:16;21.30;99.90